sensor_id;sensor_type;location;lat;lon;timestamp;pressure;altitude;pressure_sealevel;temperature;humidity
43741;BME280;29352;48.708;9.290;2023-02-01T00:00:19;98524.59;;;-4.65;88.63
43741;BME280;29352;48.708;9.290;2023-02-01T00:02:44;98532.19;;;-4.62;88.47
43741;BME280;29352;48.708;9.290;2023-02-01T00:05:10;98532.81;;;-4.71;89.01
43741;BME280;29352;48.708;9.290;2023-02-01T00:07:37;98529.38;;;-4.72;88.89
43741;BME280;29352;48.708;9.290;2023-02-01T00:10:04;98528.44;;;-4.71;89.25
43741;BME280;29352;48.708;9.290;2023-02-01T00:12:32;98531.47;;;-4.77;89.31
43741;BME280;29352;48.708;9.290;2023-02-01T00:14:57;98526.13;;;-4.50;88.44
43741;BME280;29352;48.708;9.290;2023-02-01T00:17:22;98524.25;;;-4.61;88.73
43741;BME280;29352;48.708;9.290;2023-02-01T00:19:48;98518.13;;;-4.72;88.91
43741;BME280;29352;48.708;9.290;2023-02-01T00:22:14;98509.03;;;-4.54;88.55
43741;BME280;29352;48.708;9.290;2023-02-01T00:24:39;98499.97;;;-4.61;88.39
43741;BME280;29352;48.708;9.290;2023-02-01T00:27:05;98507.09;;;-4.76;88.75
43741;BME280;29352;48.708;9.290;2023-02-01T00:29:30;98507.91;;;-4.76;89.35
43741;BME280;29352;48.708;9.290;2023-02-01T00:31:56;98502.91;;;-4.66;88.72
43741;BME280;29352;48.708;9.290;2023-02-01T00:34:21;98502.09;;;-4.66;88.41
43741;BME280;29352;48.708;9.290;2023-02-01T00:36:47;98502.50;;;-4.72;88.48
43741;BME280;29352;48.708;9.290;2023-02-01T00:39:13;98507.28;;;-4.79;88.68
43741;BME280;29352;48.708;9.290;2023-02-01T00:41:39;98497.59;;;-4.64;88.82
43741;BME280;29352;48.708;9.290;2023-02-01T00:44:06;98498.75;;;-4.68;88.63
43741;BME280;29352;48.708;9.290;2023-02-01T00:46:32;98498.28;;;-4.49;87.62
43741;BME280;29352;48.708;9.290;2023-02-01T00:48:57;98498.75;;;-4.68;88.35
43741;BME280;29352;48.708;9.290;2023-02-01T00:51:26;98496.34;;;-4.59;88.06
43741;BME280;29352;48.708;9.290;2023-02-01T00:53:53;98491.53;;;-4.65;87.95
43741;BME280;29352;48.708;9.290;2023-02-01T00:56:19;98492.03;;;-4.47;87.66
43741;BME280;29352;48.708;9.290;2023-02-01T00:58:45;98486.22;;;-4.51;87.50
43741;BME280;29352;48.708;9.290;2023-02-01T01:01:12;98490.25;;;-4.46;87.22
43741;BME280;29352;48.708;9.290;2023-02-01T01:03:51;98481.34;;;-4.55;87.38
43741;BME280;29352;48.708;9.290;2023-02-01T01:06:30;98482.44;;;-4.34;87.00
43741;BME280;29352;48.708;9.290;2023-02-01T01:09:00;98474.34;;;-4.42;87.11
43741;BME280;29352;48.708;9.290;2023-02-01T01:11:31;98488.88;;;-4.27;86.51
43741;BME280;29352;48.708;9.290;2023-02-01T01:13:59;98490.31;;;-4.22;86.23
43741;BME280;29352;48.708;9.290;2023-02-01T01:16:27;98491.28;;;-4.23;86.38
43741;BME280;29352;48.708;9.290;2023-02-01T01:18:54;98479.25;;;-4.13;85.74
43741;BME280;29352;48.708;9.290;2023-02-01T01:21:21;98484.34;;;-4.12;85.71
43741;BME280;29352;48.708;9.290;2023-02-01T01:23:47;98485.50;;;-4.16;85.93
43741;BME280;29352;48.708;9.290;2023-02-01T01:26:16;98476.38;;;-4.21;85.76
43741;BME280;29352;48.708;9.290;2023-02-01T01:28:44;98476.44;;;-4.10;85.74
43741;BME280;29352;48.708;9.290;2023-02-01T01:31:11;98485.09;;;-4.10;85.35
43741;BME280;29352;48.708;9.290;2023-02-01T01:33:39;98488.53;;;-4.09;85.35
43741;BME280;29352;48.708;9.290;2023-02-01T01:36:06;98492.59;;;-4.05;85.31
43741;BME280;29352;48.708;9.290;2023-02-01T01:38:36;98494.00;;;-4.25;85.57
43741;BME280;29352;48.708;9.290;2023-02-01T01:41:02;98487.75;;;-3.86;85.06
43741;BME280;29352;48.708;9.290;2023-02-01T01:46:18;98494.00;;;-3.88;85.09
43741;BME280;29352;48.708;9.290;2023-02-01T01:48:48;98483.63;;;-4.01;85.16
43741;BME280;29352;48.708;9.290;2023-02-01T01:51:22;98490.59;;;-3.89;84.99
43741;BME280;29352;48.708;9.290;2023-02-01T01:54:01;98478.19;;;-3.98;84.99
43741;BME280;29352;48.708;9.290;2023-02-01T01:56:34;98481.41;;;-3.94;84.78
43741;BME280;29352;48.708;9.290;2023-02-01T01:59:01;98482.16;;;-3.92;84.84
43741;BME280;29352;48.708;9.290;2023-02-01T02:01:28;98475.78;;;-4.01;85.00
43741;BME280;29352;48.708;9.290;2023-02-01T02:03:54;98469.22;;;-3.94;84.96
43741;BME280;29352;48.708;9.290;2023-02-01T02:09:13;98467.53;;;-3.95;84.66
43741;BME280;29352;48.708;9.290;2023-02-01T02:11:40;98467.75;;;-3.74;84.22
43741;BME280;29352;48.708;9.290;2023-02-01T02:14:09;98461.50;;;-3.95;84.81
43741;BME280;29352;48.708;9.290;2023-02-01T02:25:55;98460.06;;;-3.99;85.27
43741;BME280;29352;48.708;9.290;2023-02-01T02:35:04;98450.72;;;-3.91;84.64
43741;BME280;29352;48.708;9.290;2023-02-01T02:38:05;98442.47;;;-3.85;84.68
43741;BME280;29352;48.708;9.290;2023-02-01T02:40:51;98429.38;;;-3.96;84.73
43741;BME280;29352;48.708;9.290;2023-02-01T02:43:47;98432.63;;;-3.81;84.23
43741;BME280;29352;48.708;9.290;2023-02-01T02:46:48;98439.63;;;-3.82;84.39
43741;BME280;29352;48.708;9.290;2023-02-01T02:53:13;98435.84;;;-3.77;84.52
43741;BME280;29352;48.708;9.290;2023-02-01T02:56:05;98434.81;;;-3.75;84.32
43741;BME280;29352;48.708;9.290;2023-02-01T02:58:53;98437.84;;;-3.81;84.45
43741;BME280;29352;48.708;9.290;2023-02-01T03:01:39;98434.94;;;-3.76;84.03
43741;BME280;29352;48.708;9.290;2023-02-01T03:04:24;98434.06;;;-3.77;85.27
43741;BME280;29352;48.708;9.290;2023-02-01T03:06:52;98432.84;;;-3.84;85.89
43741;BME280;29352;48.708;9.290;2023-02-01T03:09:38;98437.34;;;-4.10;87.22
43741;BME280;29352;48.708;9.290;2023-02-01T03:12:14;98440.84;;;-3.98;87.40
43741;BME280;29352;48.708;9.290;2023-02-01T03:15:07;98432.19;;;-3.99;87.51
43741;BME280;29352;48.708;9.290;2023-02-01T03:17:40;98433.75;;;-3.96;87.60
43741;BME280;29352;48.708;9.290;2023-02-01T03:20:12;98436.69;;;-4.01;87.52
43741;BME280;29352;48.708;9.290;2023-02-01T03:22:44;98418.97;;;-4.09;87.59
43741;BME280;29352;48.708;9.290;2023-02-01T03:25:22;98428.19;;;-3.92;87.23
43741;BME280;29352;48.708;9.290;2023-02-01T03:28:02;98419.34;;;-3.89;86.80
43741;BME280;29352;48.708;9.290;2023-02-01T03:30:42;98421.13;;;-3.90;86.85
43741;BME280;29352;48.708;9.290;2023-02-01T03:33:14;98424.44;;;-3.88;86.56
43741;BME280;29352;48.708;9.290;2023-02-01T03:36:05;98426.31;;;-3.90;87.09
43741;BME280;29352;48.708;9.290;2023-02-01T03:41:51;98403.72;;;-4.02;87.52
43741;BME280;29352;48.708;9.290;2023-02-01T03:44:32;98404.81;;;-4.17;87.71
43741;BME280;29352;48.708;9.290;2023-02-01T03:47:13;98401.06;;;-4.13;87.92
43741;BME280;29352;48.708;9.290;2023-02-01T03:49:50;98399.19;;;-4.11;88.33
43741;BME280;29352;48.708;9.290;2023-02-01T03:52:28;98397.59;;;-4.38;89.42
43741;BME280;29352;48.708;9.290;2023-02-01T03:55:08;98379.44;;;-4.39;89.93
43741;BME280;29352;48.708;9.290;2023-02-01T03:57:43;98389.66;;;-4.36;89.68
43741;BME280;29352;48.708;9.290;2023-02-01T04:00:21;98389.44;;;-4.33;89.60
43741;BME280;29352;48.708;9.290;2023-02-01T04:02:48;98392.84;;;-4.20;89.16
43741;BME280;29352;48.708;9.290;2023-02-01T04:05:14;98389.22;;;-4.30;89.30
43741;BME280;29352;48.708;9.290;2023-02-01T04:07:40;98395.88;;;-4.26;88.89
43741;BME280;29352;48.708;9.290;2023-02-01T04:10:06;98389.41;;;-4.20;88.59
43741;BME280;29352;48.708;9.290;2023-02-01T04:12:33;98382.75;;;-4.24;88.32
43741;BME280;29352;48.708;9.290;2023-02-01T04:14:58;98392.34;;;-4.25;88.63
43741;BME280;29352;48.708;9.290;2023-02-01T04:17:24;98403.53;;;-4.12;88.64
43741;BME280;29352;48.708;9.290;2023-02-01T04:19:49;98396.81;;;-4.27;88.65
43741;BME280;29352;48.708;9.290;2023-02-01T04:22:15;98388.78;;;-4.24;88.47
43741;BME280;29352;48.708;9.290;2023-02-01T04:24:40;98388.97;;;-4.14;88.10
43741;BME280;29352;48.708;9.290;2023-02-01T04:27:05;98391.88;;;-4.19;88.03
43741;BME280;29352;48.708;9.290;2023-02-01T04:29:31;98401.06;;;-4.13;88.24
43741;BME280;29352;48.708;9.290;2023-02-01T04:31:56;98408.69;;;-4.23;88.10
43741;BME280;29352;48.708;9.290;2023-02-01T04:34:22;98408.94;;;-4.02;87.33
43741;BME280;29352;48.708;9.290;2023-02-01T04:36:49;98417.56;;;-3.89;87.25
43741;BME280;29352;48.708;9.290;2023-02-01T04:39:15;98420.16;;;-3.89;86.59
43741;BME280;29352;48.708;9.290;2023-02-01T04:41:41;98428.97;;;-3.78;86.40
43741;BME280;29352;48.708;9.290;2023-02-01T04:44:13;98424.72;;;-3.79;86.01
43741;BME280;29352;48.708;9.290;2023-02-01T04:46:41;98406.16;;;-3.88;86.08
43741;BME280;29352;48.708;9.290;2023-02-01T04:49:12;98394.34;;;-4.05;86.76
43741;BME280;29352;48.708;9.290;2023-02-01T04:51:39;98386.00;;;-3.97;86.59
43741;BME280;29352;48.708;9.290;2023-02-01T04:54:06;98385.47;;;-4.02;86.90
43741;BME280;29352;48.708;9.290;2023-02-01T04:56:33;98399.66;;;-3.93;86.39
43741;BME280;29352;48.708;9.290;2023-02-01T04:59:02;98401.66;;;-3.97;86.39
43741;BME280;29352;48.708;9.290;2023-02-01T05:01:28;98402.69;;;-3.99;86.57
43741;BME280;29352;48.708;9.290;2023-02-01T05:03:54;98392.47;;;-4.02;86.43
43741;BME280;29352;48.708;9.290;2023-02-01T05:06:20;98395.97;;;-3.91;86.41
43741;BME280;29352;48.708;9.290;2023-02-01T05:08:45;98396.22;;;-3.94;85.99
43741;BME280;29352;48.708;9.290;2023-02-01T05:11:11;98379.09;;;-3.98;85.87
43741;BME280;29352;48.708;9.290;2023-02-01T05:13:57;98376.41;;;-3.96;85.97
43741;BME280;29352;48.708;9.290;2023-02-01T05:16:24;98383.53;;;-3.87;85.37
43741;BME280;29352;48.708;9.290;2023-02-01T05:18:50;98389.03;;;-4.03;85.79
43741;BME280;29352;48.708;9.290;2023-02-01T05:21:15;98395.63;;;-3.86;85.36
43741;BME280;29352;48.708;9.290;2023-02-01T05:23:41;98390.81;;;-3.79;85.20
43741;BME280;29352;48.708;9.290;2023-02-01T05:26:25;98396.72;;;-3.77;85.06
43741;BME280;29352;48.708;9.290;2023-02-01T05:28:51;98406.59;;;-3.70;84.66
43741;BME280;29352;48.708;9.290;2023-02-01T05:31:17;98410.78;;;-3.56;84.10
43741;BME280;29352;48.708;9.290;2023-02-01T05:33:42;98410.66;;;-3.66;84.07
43741;BME280;29352;48.708;9.290;2023-02-01T05:36:08;98406.16;;;-3.64;84.15
43741;BME280;29352;48.708;9.290;2023-02-01T05:38:33;98400.81;;;-3.62;83.92
43741;BME280;29352;48.708;9.290;2023-02-01T05:40:59;98413.13;;;-3.64;83.91
43741;BME280;29352;48.708;9.290;2023-02-01T05:43:24;98397.25;;;-3.61;84.08
43741;BME280;29352;48.708;9.290;2023-02-01T05:45:51;98405.28;;;-3.75;84.42
43741;BME280;29352;48.708;9.290;2023-02-01T05:48:18;98405.75;;;-3.70;84.09
43741;BME280;29352;48.708;9.290;2023-02-01T05:50:44;98404.28;;;-3.86;84.90
43741;BME280;29352;48.708;9.290;2023-02-01T05:53:11;98417.53;;;-3.65;84.54
43741;BME280;29352;48.708;9.290;2023-02-01T05:55:37;98413.50;;;-3.69;84.90
43741;BME280;29352;48.708;9.290;2023-02-01T05:58:03;98416.94;;;-3.68;85.53
43741;BME280;29352;48.708;9.290;2023-02-01T06:00:29;98410.72;;;-3.78;86.41
43741;BME280;29352;48.708;9.290;2023-02-01T06:02:55;98415.81;;;-4.01;86.85
43741;BME280;29352;48.708;9.290;2023-02-01T06:05:21;98425.72;;;-3.93;86.99
43741;BME280;29352;48.708;9.290;2023-02-01T06:07:47;98417.72;;;-4.03;87.46
43741;BME280;29352;48.708;9.290;2023-02-01T06:10:13;98414.91;;;-4.13;88.50
43741;BME280;29352;48.708;9.290;2023-02-01T06:12:38;98415.34;;;-4.06;88.67
43741;BME280;29352;48.708;9.290;2023-02-01T06:15:04;98417.13;;;-4.19;89.40
43741;BME280;29352;48.708;9.290;2023-02-01T06:17:30;98381.81;;;-4.23;89.96
43741;BME280;29352;48.708;9.290;2023-02-01T06:19:56;98397.00;;;-4.54;90.99
43741;BME280;29352;48.708;9.290;2023-02-01T06:22:21;98393.59;;;-4.31;90.95
43741;BME280;29352;48.708;9.290;2023-02-01T06:24:47;98383.94;;;-4.41;91.24
43741;BME280;29352;48.708;9.290;2023-02-01T06:27:14;98378.38;;;-4.61;90.92
43741;BME280;29352;48.708;9.290;2023-02-01T06:29:40;98382.81;;;-4.50;90.94
43741;BME280;29352;48.708;9.290;2023-02-01T06:32:05;98386.88;;;-4.46;90.99
43741;BME280;29352;48.708;9.290;2023-02-01T06:34:31;98384.50;;;-4.49;90.88
43741;BME280;29352;48.708;9.290;2023-02-01T06:36:56;98385.78;;;-4.31;90.30
43741;BME280;29352;48.708;9.290;2023-02-01T06:39:22;98382.78;;;-4.37;90.12
43741;BME280;29352;48.708;9.290;2023-02-01T06:41:48;98379.31;;;-4.25;89.92
43741;BME280;29352;48.708;9.290;2023-02-01T06:44:14;98384.53;;;-4.25;89.37
43741;BME280;29352;48.708;9.290;2023-02-01T06:46:40;98388.09;;;-4.15;88.87
43741;BME280;29352;48.708;9.290;2023-02-01T06:49:06;98390.22;;;-4.20;88.81
43741;BME280;29352;48.708;9.290;2023-02-01T06:51:31;98392.50;;;-4.15;88.62
43741;BME280;29352;48.708;9.290;2023-02-01T06:53:57;98397.28;;;-4.09;88.70
43741;BME280;29352;48.708;9.290;2023-02-01T06:56:23;98394.88;;;-4.12;88.40
43741;BME280;29352;48.708;9.290;2023-02-01T06:58:49;98391.22;;;-3.97;87.96
43741;BME280;29352;48.708;9.290;2023-02-01T07:01:15;98397.56;;;-4.01;87.79
43741;BME280;29352;48.708;9.290;2023-02-01T07:03:42;98414.69;;;-4.10;88.10
43741;BME280;29352;48.708;9.290;2023-02-01T07:06:11;98411.91;;;-4.19;88.24
43741;BME280;29352;48.708;9.290;2023-02-01T07:08:37;98420.59;;;-3.95;87.78
43741;BME280;29352;48.708;9.290;2023-02-01T07:11:09;98421.28;;;-4.04;88.16
43741;BME280;29352;48.708;9.290;2023-02-01T07:13:36;98422.72;;;-4.00;87.77
43741;BME280;29352;48.708;9.290;2023-02-01T07:16:05;98422.50;;;-4.10;88.05
43741;BME280;29352;48.708;9.290;2023-02-01T07:18:32;98430.03;;;-4.05;87.88
43741;BME280;29352;48.708;9.290;2023-02-01T07:20:58;98430.03;;;-4.05;87.77
43741;BME280;29352;48.708;9.290;2023-02-01T07:23:24;98426.16;;;-4.12;87.75
43741;BME280;29352;48.708;9.290;2023-02-01T07:25:56;98432.34;;;-4.13;87.69
43741;BME280;29352;48.708;9.290;2023-02-01T07:28:23;98437.06;;;-3.94;87.65
43741;BME280;29352;48.708;9.290;2023-02-01T07:30:50;98435.97;;;-3.79;86.95
43741;BME280;29352;48.708;9.290;2023-02-01T07:33:23;98437.59;;;-3.89;87.55
43741;BME280;29352;48.708;9.290;2023-02-01T07:35:50;98454.22;;;-4.03;87.42
43741;BME280;29352;48.708;9.290;2023-02-01T07:38:16;98457.47;;;-3.75;86.96
43741;BME280;29352;48.708;9.290;2023-02-01T07:40:42;98457.28;;;-3.85;86.97
43741;BME280;29352;48.708;9.290;2023-02-01T07:43:08;98461.63;;;-3.73;86.43
43741;BME280;29352;48.708;9.290;2023-02-01T07:45:35;98461.94;;;-4.01;87.31
43741;BME280;29352;48.708;9.290;2023-02-01T07:48:02;98466.84;;;-3.73;86.66
43741;BME280;29352;48.708;9.290;2023-02-01T07:50:29;98471.59;;;-3.67;86.67
43741;BME280;29352;48.708;9.290;2023-02-01T07:52:55;98470.75;;;-3.67;86.17
43741;BME280;29352;48.708;9.290;2023-02-01T07:55:23;98467.72;;;-3.61;86.36
43741;BME280;29352;48.708;9.290;2023-02-01T07:57:49;98469.16;;;-3.57;86.23
43741;BME280;29352;48.708;9.290;2023-02-01T08:00:15;98472.66;;;-3.69;86.51
43741;BME280;29352;48.708;9.290;2023-02-01T08:03:00;98462.22;;;-3.69;86.71
43741;BME280;29352;48.708;9.290;2023-02-01T08:05:26;98454.19;;;-3.90;86.38
43741;BME280;29352;48.708;9.290;2023-02-01T08:07:52;98455.41;;;-3.83;86.39
43741;BME280;29352;48.708;9.290;2023-02-01T08:10:19;98458.94;;;-3.84;86.92
43741;BME280;29352;48.708;9.290;2023-02-01T08:12:45;98467.38;;;-3.81;86.29
43741;BME280;29352;48.708;9.290;2023-02-01T08:15:14;98467.94;;;-3.88;86.98
43741;BME280;29352;48.708;9.290;2023-02-01T08:17:49;98467.84;;;-3.87;86.85
43741;BME280;29352;48.708;9.290;2023-02-01T08:20:17;98460.00;;;-3.87;86.93
43741;BME280;29352;48.708;9.290;2023-02-01T08:22:43;98453.84;;;-3.86;86.63
43741;BME280;29352;48.708;9.290;2023-02-01T08:25:10;98447.25;;;-3.78;86.60
43741;BME280;29352;48.708;9.290;2023-02-01T08:27:36;98450.59;;;-3.76;86.05
43741;BME280;29352;48.708;9.290;2023-02-01T08:30:04;98463.50;;;-3.75;85.97
43741;BME280;29352;48.708;9.290;2023-02-01T08:32:33;98468.75;;;-3.40;85.07
43741;BME280;29352;48.708;9.290;2023-02-01T08:35:00;98473.47;;;-3.45;84.43
43741;BME280;29352;48.708;9.290;2023-02-01T08:37:26;98469.38;;;-3.60;85.45
43741;BME280;29352;48.708;9.290;2023-02-01T08:39:51;98470.19;;;-3.60;85.29
43741;BME280;29352;48.708;9.290;2023-02-01T08:42:17;98465.84;;;-3.59;85.47
43741;BME280;29352;48.708;9.290;2023-02-01T08:45:02;98466.44;;;-3.55;85.11
43741;BME280;29352;48.708;9.290;2023-02-01T08:47:29;98465.50;;;-3.54;84.84
43741;BME280;29352;48.708;9.290;2023-02-01T08:49:55;98456.09;;;-3.57;85.03
43741;BME280;29352;48.708;9.290;2023-02-01T08:52:21;98454.38;;;-3.45;85.07
43741;BME280;29352;48.708;9.290;2023-02-01T08:54:46;98462.94;;;-3.32;84.40
43741;BME280;29352;48.708;9.290;2023-02-01T08:57:12;98472.47;;;-3.31;83.84
43741;BME280;29352;48.708;9.290;2023-02-01T08:59:37;98479.97;;;-3.04;82.99
43741;BME280;29352;48.708;9.290;2023-02-01T09:02:03;98478.56;;;-3.08;82.94
43741;BME280;29352;48.708;9.290;2023-02-01T09:04:28;98473.56;;;-3.11;82.62
43741;BME280;29352;48.708;9.290;2023-02-01T09:06:54;98471.50;;;-3.30;83.77
43741;BME280;29352;48.708;9.290;2023-02-01T09:09:21;98465.56;;;-3.32;83.63
43741;BME280;29352;48.708;9.290;2023-02-01T09:11:47;98477.88;;;-3.45;83.44
43741;BME280;29352;48.708;9.290;2023-02-01T09:14:17;98471.13;;;-3.37;83.46
43741;BME280;29352;48.708;9.290;2023-02-01T09:16:43;98469.91;;;-3.44;82.78
43741;BME280;29352;48.708;9.290;2023-02-01T09:19:08;98478.34;;;-3.40;82.59
43741;BME280;29352;48.708;9.290;2023-02-01T09:21:34;98474.25;;;-3.31;82.58
43741;BME280;29352;48.708;9.290;2023-02-01T09:24:00;98484.59;;;-3.19;82.60
43741;BME280;29352;48.708;9.290;2023-02-01T09:26:26;98480.91;;;-3.27;82.16
43741;BME280;29352;48.708;9.290;2023-02-01T09:28:52;98476.59;;;-3.28;82.46
43741;BME280;29352;48.708;9.290;2023-02-01T09:31:18;98481.81;;;-3.28;82.17
43741;BME280;29352;48.708;9.290;2023-02-01T09:33:44;98488.13;;;-3.31;82.17
43741;BME280;29352;48.708;9.290;2023-02-01T09:36:09;98487.09;;;-3.17;81.82
43741;BME280;29352;48.708;9.290;2023-02-01T09:38:34;98490.63;;;-3.18;81.62
43741;BME280;29352;48.708;9.290;2023-02-01T09:41:01;98497.53;;;-3.17;81.54
43741;BME280;29352;48.708;9.290;2023-02-01T09:43:46;98496.13;;;-3.10;81.06
43741;BME280;29352;48.708;9.290;2023-02-01T09:46:23;98484.47;;;-3.17;81.15
43741;BME280;29352;48.708;9.290;2023-02-01T09:48:57;98503.13;;;-3.11;80.96
43741;BME280;29352;48.708;9.290;2023-02-01T09:51:33;98504.66;;;-3.08;80.94
43741;BME280;29352;48.708;9.290;2023-02-01T09:54:09;98499.06;;;-2.68;79.71
43741;BME280;29352;48.708;9.290;2023-02-01T09:57:01;98510.94;;;-2.53;79.33
43741;BME280;29352;48.708;9.290;2023-02-01T09:59:40;98513.69;;;-2.66;79.70
43741;BME280;29352;48.708;9.290;2023-02-01T10:02:19;98509.13;;;-2.75;79.55
43741;BME280;29352;48.708;9.290;2023-02-01T10:04:49;98512.50;;;-2.62;79.24
43741;BME280;29352;48.708;9.290;2023-02-01T10:19:13;98517.59;;;-2.26;78.08
43741;BME280;29352;48.708;9.290;2023-02-01T10:22:01;98519.03;;;-2.22;77.64
43741;BME280;29352;48.708;9.290;2023-02-01T10:24:46;98532.09;;;-2.22;77.32
43741;BME280;29352;48.708;9.290;2023-02-01T10:27:33;98534.00;;;-2.13;77.01
43741;BME280;29352;48.708;9.290;2023-02-01T10:30:18;98540.16;;;-2.14;77.48
43741;BME280;29352;48.708;9.290;2023-02-01T10:32:50;98539.00;;;-2.10;77.38
43741;BME280;29352;48.708;9.290;2023-02-01T10:35:31;98539.22;;;-2.02;76.63
43741;BME280;29352;48.708;9.290;2023-02-01T10:38:02;98539.44;;;-1.94;76.29
43741;BME280;29352;48.708;9.290;2023-02-01T10:40:33;98538.41;;;-2.02;76.23
43741;BME280;29352;48.708;9.290;2023-02-01T10:43:02;98526.13;;;-1.91;76.03
43741;BME280;29352;48.708;9.290;2023-02-01T10:45:30;98518.97;;;-1.77;76.07
43741;BME280;29352;48.708;9.290;2023-02-01T10:48:02;98527.78;;;-2.01;76.08
43741;BME280;29352;48.708;9.290;2023-02-01T10:50:51;98522.31;;;-1.75;75.66
43741;BME280;29352;48.708;9.290;2023-02-01T10:53:45;98518.97;;;-1.77;75.00
43741;BME280;29352;48.708;9.290;2023-02-01T10:56:27;98518.72;;;-1.74;75.05
43741;BME280;29352;48.708;9.290;2023-02-01T10:59:20;98516.44;;;-1.68;75.00
43741;BME280;29352;48.708;9.290;2023-02-01T11:01:58;98511.50;;;-1.82;74.80
43741;BME280;29352;48.708;9.290;2023-02-01T11:04:33;98515.69;;;-2.13;75.77
43741;BME280;29352;48.708;9.290;2023-02-01T11:07:17;98504.59;;;-1.94;75.07
43741;BME280;29352;48.708;9.290;2023-02-01T11:09:51;98510.75;;;-1.84;74.51
43741;BME280;29352;48.708;9.290;2023-02-01T11:12:34;98513.97;;;-1.80;74.72
43741;BME280;29352;48.708;9.290;2023-02-01T11:15:22;98501.13;;;-1.72;74.51
43741;BME280;29352;48.708;9.290;2023-02-01T11:17:51;98509.81;;;-1.83;74.87
43741;BME280;29352;48.708;9.290;2023-02-01T11:20:19;98497.69;;;-1.84;74.88
43741;BME280;29352;48.708;9.290;2023-02-01T11:22:56;98497.06;;;-1.65;74.16
43741;BME280;29352;48.708;9.290;2023-02-01T11:25:23;98494.66;;;-1.57;73.99
43741;BME280;29352;48.708;9.290;2023-02-01T11:27:52;98490.00;;;-1.53;74.07
43741;BME280;29352;48.708;9.290;2023-02-01T11:30:46;98489.06;;;-1.63;73.39
43741;BME280;29352;48.708;9.290;2023-02-01T11:33:19;98481.59;;;-1.68;73.22
43741;BME280;29352;48.708;9.290;2023-02-01T11:35:47;98490.50;;;-1.71;73.69
43741;BME280;29352;48.708;9.290;2023-02-01T11:38:31;98483.97;;;-1.76;73.22
43741;BME280;29352;48.708;9.290;2023-02-01T11:41:13;98475.44;;;-1.78;73.16
43741;BME280;29352;48.708;9.290;2023-02-01T11:44:15;98458.28;;;-1.71;71.85
43741;BME280;29352;48.708;9.290;2023-02-01T11:46:45;98454.00;;;-1.61;72.05
43741;BME280;29352;48.708;9.290;2023-02-01T11:49:25;98457.66;;;-1.63;71.68
43741;BME280;29352;48.708;9.290;2023-02-01T11:52:12;98445.13;;;-1.49;71.55
43741;BME280;29352;48.708;9.290;2023-02-01T11:58:50;98443.47;;;-1.29;70.16
43741;BME280;29352;48.708;9.290;2023-02-01T12:04:49;98431.41;;;-1.20;68.56
43741;BME280;29352;48.708;9.290;2023-02-01T12:10:35;98417.72;;;-1.45;67.69
43741;BME280;29352;48.708;9.290;2023-02-01T12:16:40;98432.94;;;-1.38;67.62
43741;BME280;29352;48.708;9.290;2023-02-01T12:25:20;98410.25;;;-1.49;67.68
43741;BME280;29352;48.708;9.290;2023-02-01T12:36:56;98430.63;;;-1.53;68.29
43741;BME280;29352;48.708;9.290;2023-02-01T12:43:09;98429.16;;;-1.46;67.46
43741;BME280;29352;48.708;9.290;2023-02-01T12:45:54;98425.88;;;-1.59;67.68
43741;BME280;29352;48.708;9.290;2023-02-01T12:51:39;98429.72;;;-1.42;67.43
43741;BME280;29352;48.708;9.290;2023-02-01T12:54:22;98429.41;;;-1.49;67.89
43741;BME280;29352;48.708;9.290;2023-02-01T12:57:04;98428.19;;;-1.45;67.48
43741;BME280;29352;48.708;9.290;2023-02-01T13:02:35;98420.53;;;-1.57;67.04
43741;BME280;29352;48.708;9.290;2023-02-01T13:05:20;98426.38;;;-1.65;67.50
43741;BME280;29352;48.708;9.290;2023-02-01T13:08:12;98429.78;;;-1.53;67.70
43741;BME280;29352;48.708;9.290;2023-02-01T13:10:47;98435.19;;;-1.55;67.74
43741;BME280;29352;48.708;9.290;2023-02-01T13:17:11;98419.75;;;-1.48;67.25
43741;BME280;29352;48.708;9.290;2023-02-01T13:19:49;98416.84;;;-1.55;67.05
43741;BME280;29352;48.708;9.290;2023-02-01T13:25:14;98415.91;;;-1.65;67.45
43741;BME280;29352;48.708;9.290;2023-02-01T13:27:55;98414.53;;;-1.80;67.92
43741;BME280;29352;48.708;9.290;2023-02-01T13:30:46;98405.13;;;-1.83;68.69
43741;BME280;29352;48.708;9.290;2023-02-01T13:42:31;98401.44;;;-1.80;68.69
43741;BME280;29352;48.708;9.290;2023-02-01T13:45:05;98409.78;;;-1.86;69.00
43741;BME280;29352;48.708;9.290;2023-02-01T13:47:43;98411.34;;;-1.84;68.92
43741;BME280;29352;48.708;9.290;2023-02-01T13:50:22;98406.16;;;-1.95;69.10
43741;BME280;29352;48.708;9.290;2023-02-01T13:53:00;98400.66;;;-1.92;69.17
43741;BME280;29352;48.708;9.290;2023-02-01T13:55:37;98406.94;;;-1.83;69.49
43741;BME280;29352;48.708;9.290;2023-02-01T13:58:15;98407.44;;;-1.90;69.54
43741;BME280;29352;48.708;9.290;2023-02-01T14:00:47;98396.06;;;-2.11;70.16
43741;BME280;29352;48.708;9.290;2023-02-01T14:03:18;98392.59;;;-2.00;70.49
43741;BME280;29352;48.708;9.290;2023-02-01T14:08:39;98391.44;;;-2.07;70.43
43741;BME280;29352;48.708;9.290;2023-02-01T14:11:06;98392.47;;;-2.31;71.50
43741;BME280;29352;48.708;9.290;2023-02-01T14:13:51;98390.06;;;-2.23;71.15
43741;BME280;29352;48.708;9.290;2023-02-01T14:16:17;98395.66;;;-2.27;71.29
43741;BME280;29352;48.708;9.290;2023-02-01T14:21:28;98378.72;;;-2.12;71.06
43741;BME280;29352;48.708;9.290;2023-02-01T14:24:02;98376.59;;;-2.07;71.19
43741;BME280;29352;48.708;9.290;2023-02-01T14:26:47;98379.03;;;-1.94;71.20
43741;BME280;29352;48.708;9.290;2023-02-01T14:34:50;98392.91;;;-2.26;71.45
43741;BME280;29352;48.708;9.290;2023-02-01T14:47:50;98396.94;;;-2.22;71.47
43741;BME280;29352;48.708;9.290;2023-02-01T14:50:30;98404.53;;;-2.19;71.34
43741;BME280;29352;48.708;9.290;2023-02-01T15:01:30;98419.16;;;-2.16;71.13
43741;BME280;29352;48.708;9.290;2023-02-01T15:06:39;98432.69;;;-2.11;71.43
43741;BME280;29352;48.708;9.290;2023-02-01T15:09:12;98433.38;;;-1.98;71.33
43741;BME280;29352;48.708;9.290;2023-02-01T15:14:35;98434.13;;;-2.07;71.83
43741;BME280;29352;48.708;9.290;2023-02-01T15:17:03;98426.97;;;-2.05;71.57
43741;BME280;29352;48.708;9.290;2023-02-01T15:19:54;98427.97;;;-2.17;71.72
43741;BME280;29352;48.708;9.290;2023-02-01T15:22:21;98426.41;;;-2.08;71.23
43741;BME280;29352;48.708;9.290;2023-02-01T15:24:56;98433.97;;;-1.94;71.53
43741;BME280;29352;48.708;9.290;2023-02-01T15:27:24;98432.44;;;-2.08;71.79
43741;BME280;29352;48.708;9.290;2023-02-01T15:29:50;98422.00;;;-2.08;71.15
43741;BME280;29352;48.708;9.290;2023-02-01T15:32:29;98431.13;;;-2.02;71.18